Airfield :
LOGIN :

Register | Disclaimer

   EN    FR    IT 

 










Legend :    VFR   Marginal VFR   IFR   Intensive IFR   Very Intensive IFR
Visi :
Ceiling :
>= 8 km
>= 3000ft
5 to 8 km
1000 to 3000 ft
1500m to 5 km
500 to 1000 ft
800 to 1500m
200 to 500 ft
< 800m
< 200 ft
Symbols :   Thunderstorms  Fog  Heavy snow  Heavy precipitations  Wind > 20 kt
SIGMETs :     Misc.  Thunderstorms  Icing  Turbulence  Mountain Waves  Volcanic Ashes






- Airport Elevation : 237 ft
- IATA code : MJF


ENMS - Mosjøen , Kjærstad

CURRENT METAR :
  • 192120Z AUTO 00000KT 9999 OVC025/// 14/12 Q1018 RMK WIND 412FT 00000KT

EXPIRED METARs :
  • 192050Z VRB03KT 9999 FEW021 BKN026 14/12 Q1018 RMK WIND 412FT VRB02KT
  • 192020Z 35004KT 330V060 9999 FEW011 BKN025 14/12 Q1018 RMK WIND 412FT VRB03KT
  • 191950Z 35003KT 300V040 9999 FEW011 BKN025 14/12 Q1018 RMK WIND 412FT 32002KT
  • 191920Z 34004KT 300V020 9999 FEW012 BKN024 14/12 Q1018 RMK WIND 412FT 32003KT
  • 191850Z 34004KT 300V030 9999 FEW012 BKN024 14/12 Q1018 RMK WIND 412FT VRB03KT
  • 191820Z 36005KT 330V040 9999 FEW012 BKN024 15/12 Q1018 RMK WIND 412FT 33003KT
  • 191750Z VRB03KT 9999 FEW016 BKN026 15/12 Q1018 RMK WIND 412FT VRB03KT
  • 191720Z 32003KT 9999 FEW014 BKN020 15/12 Q1018 RMK WIND 412FT 24003KT
  • 191650Z 30005KT 250V330 9999 FEW017 BKN032 15/12 Q1018 RMK WIND 412FT VRB03KT

Expired Forecast.



MET'MAP, your aeronautical weather chart ! - Copyright ORBIFLY December 2007 - Disclaimer

ORBIFLY MET'MAP TEAM :

Programming & Development : Alexandra Zaïnal
Original concept : Baudouin d'Aumeries
Technical & hardware support : Manuel Goepfert
Assistance : Marc-Olivier Méhu




SOURCES & CREDITS :

   NOAA